createdAt,value
2022-12-17T00:02:20.060Z,5.63
2022-12-17T00:05:05.534Z,5.54
2022-12-17T00:07:50.911Z,5.64
2022-12-17T00:10:37.222Z,5.55
2022-12-17T00:13:22.581Z,5.79
2022-12-17T00:16:11.107Z,5.51
2022-12-17T00:18:56.447Z,5.25
2022-12-17T00:21:41.647Z,5.24
2022-12-17T00:24:27.022Z,5.16
2022-12-17T00:27:12.519Z,4.85
2022-12-17T00:29:57.629Z,4.65
2022-12-17T00:32:42.986Z,5.19
2022-12-17T00:35:28.489Z,5.23
2022-12-17T00:38:13.793Z,5.14
2022-12-17T00:40:59.312Z,5.28
2022-12-17T00:43:44.624Z,5.19
2022-12-17T00:46:29.963Z,5.02
2022-12-17T00:49:15.299Z,5.21
2022-12-17T00:52:00.889Z,5.15
2022-12-17T00:54:46.062Z,5.09
2022-12-17T00:57:31.497Z,5.17
2022-12-17T01:00:17.018Z,4.87
2022-12-17T01:03:02.373Z,4.87
2022-12-17T01:05:47.792Z,4.89
2022-12-17T01:08:33.467Z,4.88
2022-12-17T01:11:23.911Z,5.09
2022-12-17T01:14:09.630Z,4.87
2022-12-17T01:16:56.329Z,4.81
2022-12-17T01:19:42.172Z,4.56
2022-12-17T01:22:27.469Z,4.52
2022-12-17T01:25:12.825Z,4.74
2022-12-17T01:27:58.361Z,4.67
2022-12-17T01:30:43.626Z,4.44
2022-12-17T01:33:29.097Z,4.85
2022-12-17T01:36:15.269Z,4.56
2022-12-17T01:39:00.372Z,4.92
2022-12-17T01:41:45.553Z,4.84
2022-12-17T01:44:58.329Z,4.82
2022-12-17T01:47:45.154Z,4.61
2022-12-17T01:50:30.654Z,4.54
2022-12-17T01:53:16.791Z,4.36
2022-12-17T01:56:02.223Z,4.61
2022-12-17T01:58:48.237Z,4.61
2022-12-17T02:01:33.513Z,4.52
2022-12-17T02:04:19.203Z,4.65
2022-12-17T02:07:28.159Z,4.86
2022-12-17T02:10:22.527Z,4.70
2022-12-17T02:13:11.575Z,4.40
2022-12-17T02:16:01.894Z,4.52
2022-12-17T02:18:56.169Z,4.39
2022-12-17T02:21:41.255Z,4.22
2022-12-17T02:25:00.406Z,4.33
2022-12-17T02:27:45.681Z,3.76
2022-12-17T02:30:30.711Z,3.77
2022-12-17T02:33:15.706Z,4.09
2022-12-17T02:36:09.040Z,4.17
2022-12-17T02:38:54.022Z,4.07
2022-12-17T02:41:46.836Z,3.93
2022-12-17T02:44:32.506Z,3.93
2022-12-17T02:47:17.771Z,3.80
2022-12-17T02:50:02.711Z,3.83
2022-12-17T02:52:47.869Z,4.14
2022-12-17T02:55:33.030Z,3.86
2022-12-17T02:58:18.281Z,4.15
2022-12-17T03:01:03.774Z,3.83
2022-12-17T03:03:50.536Z,3.93
2022-12-17T03:06:35.778Z,3.85
2022-12-17T03:09:20.873Z,4.04
2022-12-17T03:12:05.919Z,4.00
2022-12-17T03:14:51.186Z,3.87
2022-12-17T03:17:36.666Z,3.84
2022-12-17T03:20:26.605Z,4.07
2022-12-17T03:23:11.744Z,4.01
2022-12-17T03:25:57.220Z,4.17
2022-12-17T03:28:42.488Z,4.09
2022-12-17T03:31:27.451Z,4.07
2022-12-17T03:34:12.769Z,4.05
2022-12-17T03:36:57.957Z,4.22
2022-12-17T03:39:43.024Z,4.21
2022-12-17T03:42:28.473Z,4.40
2022-12-17T03:45:13.879Z,4.38
2022-12-17T03:47:59.165Z,4.41
2022-12-17T03:50:44.239Z,4.43
2022-12-17T03:53:29.524Z,3.90
2022-12-17T03:56:14.888Z,4.05
2022-12-17T03:58:59.983Z,3.73
2022-12-17T04:01:45.574Z,4.08
2022-12-17T04:04:30.708Z,3.65
2022-12-17T04:07:16.128Z,3.87
2022-12-17T04:10:01.113Z,3.90
2022-12-17T04:12:46.276Z,3.42
2022-12-17T04:15:31.684Z,3.55
2022-12-17T04:18:16.954Z,3.81
2022-12-17T04:21:02.361Z,3.47
2022-12-17T04:23:47.742Z,3.67
2022-12-17T04:26:33.210Z,3.29
2022-12-17T04:29:18.514Z,3.12
2022-12-17T04:32:03.945Z,3.64
2022-12-17T04:34:49.337Z,3.68
2022-12-17T04:37:34.752Z,3.99
2022-12-17T04:40:20.091Z,4.23
2022-12-17T04:43:05.261Z,3.97
2022-12-17T04:45:51.008Z,4.21
2022-12-17T04:48:36.102Z,3.98
2022-12-17T04:51:21.570Z,3.66
2022-12-17T04:54:06.829Z,4.13
2022-12-17T04:56:52.157Z,3.94
2022-12-17T04:59:37.315Z,3.50
2022-12-17T05:02:22.881Z,3.79
2022-12-17T05:05:08.357Z,4.02
2022-12-17T05:07:53.904Z,3.96
2022-12-17T05:10:39.013Z,4.06
2022-12-17T05:13:24.553Z,4.05
2022-12-17T05:16:14.607Z,3.90
2022-12-17T05:18:59.710Z,4.12
2022-12-17T05:21:49.469Z,4.18
2022-12-17T05:24:34.753Z,4.24
2022-12-17T05:27:20.178Z,4.16
2022-12-17T05:30:05.387Z,4.37
2022-12-17T05:32:50.877Z,4.35
2022-12-17T05:35:36.197Z,3.96
2022-12-17T05:38:25.725Z,4.34
2022-12-17T05:41:10.748Z,4.10
2022-12-17T05:43:55.973Z,3.83
2022-12-17T05:46:45.993Z,3.99
2022-12-17T05:49:31.420Z,4.01
2022-12-17T05:52:16.511Z,3.91
2022-12-17T05:55:18.734Z,4.10
2022-12-17T05:58:03.687Z,4.79
2022-12-17T06:00:49.152Z,5.26
2022-12-17T06:03:34.999Z,5.17
2022-12-17T06:06:20.547Z,5.20
2022-12-17T06:09:06.007Z,5.20
2022-12-17T06:11:51.338Z,5.41
2022-12-17T06:14:36.617Z,5.83
2022-12-17T06:17:21.753Z,5.54
2022-12-17T06:20:07.120Z,5.63
2022-12-17T06:22:52.682Z,5.87
2022-12-17T06:25:38.075Z,5.85
2022-12-17T06:28:23.254Z,5.74
2022-12-17T06:31:31.552Z,5.76
2022-12-17T06:34:17.206Z,6.16
2022-12-17T06:37:03.234Z,6.11
2022-12-17T06:39:48.519Z,6.10
2022-12-17T06:42:33.579Z,6.26
2022-12-17T06:45:19.023Z,5.94
2022-12-17T06:48:04.039Z,5.95
2022-12-17T06:50:49.490Z,5.98
2022-12-17T06:53:35.091Z,6.27
2022-12-17T06:56:20.927Z,6.44
2022-12-17T06:59:06.422Z,6.88
2022-12-17T07:01:51.919Z,7.04
2022-12-17T07:04:37.148Z,7.22
2022-12-17T07:07:22.196Z,7.22
2022-12-17T07:10:12.291Z,7.23
2022-12-17T07:12:59.434Z,7.46
2022-12-17T07:15:44.932Z,7.48
2022-12-17T07:18:30.403Z,7.41
2022-12-17T07:21:15.560Z,7.32
2022-12-17T07:24:00.852Z,7.47
2022-12-17T07:26:45.996Z,7.24
2022-12-17T07:29:31.555Z,7.00
2022-12-17T07:32:16.660Z,7.60
2022-12-17T07:35:02.510Z,7.90
2022-12-17T07:37:47.616Z,8.18
2022-12-17T07:40:33.170Z,8.31
2022-12-17T07:43:18.562Z,8.45
2022-12-17T07:46:04.051Z,8.64
2022-12-17T07:48:49.299Z,8.60
2022-12-17T07:51:34.728Z,7.79
2022-12-17T07:54:20.247Z,7.87
2022-12-17T07:57:05.627Z,8.06
2022-12-17T07:59:50.568Z,8.53
2022-12-17T08:02:36.215Z,8.75
2022-12-17T08:05:21.718Z,8.92
2022-12-17T08:08:07.330Z,9.42
2022-12-17T08:10:52.715Z,9.70
2022-12-17T08:13:38.305Z,9.83
2022-12-17T08:16:23.858Z,9.99
2022-12-17T08:19:09.257Z,10.64
2022-12-17T08:21:54.666Z,10.74
2022-12-17T08:24:40.034Z,10.97
2022-12-17T08:27:25.367Z,10.78
2022-12-17T08:30:10.778Z,10.79
2022-12-17T08:32:55.783Z,10.83
2022-12-17T08:35:41.228Z,10.96
2022-12-17T08:38:26.480Z,10.71
2022-12-17T08:41:11.911Z,10.71
2022-12-17T08:43:57.117Z,10.79
2022-12-17T08:46:42.365Z,10.42
2022-12-17T08:49:27.633Z,10.57
2022-12-17T08:52:13.057Z,11.52
2022-12-17T08:54:58.409Z,11.75
2022-12-17T08:57:43.865Z,11.72
2022-12-17T09:00:29.364Z,11.19
2022-12-17T09:03:21.123Z,11.31
2022-12-17T09:06:06.456Z,11.57
2022-12-17T09:08:51.593Z,11.88
2022-12-17T09:11:37.111Z,11.97
2022-12-17T09:14:22.502Z,12.48
2022-12-17T09:17:07.997Z,12.83
2022-12-17T09:19:53.266Z,13.25
2022-12-17T09:22:38.749Z,13.63
2022-12-17T09:25:24.085Z,14.03
2022-12-17T09:28:09.481Z,13.93
2022-12-17T09:30:54.453Z,13.61
2022-12-17T09:33:39.823Z,13.57
2022-12-17T09:36:25.978Z,13.55
2022-12-17T09:39:11.035Z,13.46
2022-12-17T09:42:13.037Z,13.22
2022-12-17T09:45:03.325Z,13.13
2022-12-17T09:48:00.532Z,12.94
2022-12-17T09:50:45.622Z,12.88
2022-12-17T09:53:54.295Z,13.12
2022-12-17T09:56:40.443Z,12.95
2022-12-17T09:59:25.694Z,12.98
2022-12-17T10:02:11.332Z,12.96
2022-12-17T10:05:01.119Z,13.00
2022-12-17T10:07:51.862Z,12.92
2022-12-17T10:10:41.618Z,13.12
2022-12-17T10:13:30.953Z,13.21
2022-12-17T10:16:16.599Z,13.23
2022-12-17T10:19:01.787Z,13.30
2022-12-17T10:21:47.051Z,12.99
2022-12-17T10:24:32.443Z,12.89
2022-12-17T10:27:17.881Z,13.00
2022-12-17T10:30:03.461Z,13.07
2022-12-17T10:32:48.605Z,12.58
2022-12-17T10:35:39.425Z,12.38
2022-12-17T10:38:41.321Z,11.84
2022-12-17T10:41:45.839Z,12.01
2022-12-17T10:44:49.939Z,12.37
2022-12-17T10:47:36.648Z,12.20
2022-12-17T10:50:30.205Z,11.91
2022-12-17T10:53:15.365Z,12.07
2022-12-17T10:56:11.236Z,11.75
2022-12-17T10:59:02.193Z,11.83
2022-12-17T11:01:47.532Z,11.78
2022-12-17T11:04:49.327Z,11.85
2022-12-17T11:07:44.662Z,11.95
2022-12-17T11:10:35.482Z,12.26
2022-12-17T11:13:22.636Z,12.80
2022-12-17T11:16:09.540Z,12.74
2022-12-17T11:19:03.858Z,12.68
2022-12-17T11:22:07.821Z,12.73
2022-12-17T11:25:17.581Z,12.93
2022-12-17T11:28:04.911Z,12.54
2022-12-17T11:30:50.183Z,12.62
2022-12-17T11:34:15.425Z,12.87
2022-12-17T11:37:32.329Z,12.53
2022-12-17T11:40:17.033Z,12.37
2022-12-17T11:43:17.021Z,12.33
2022-12-17T11:46:17.732Z,12.81
2022-12-17T11:49:27.859Z,12.68
2022-12-17T11:52:31.648Z,12.89
2022-12-17T11:55:29.065Z,12.70
2022-12-17T11:58:21.078Z,12.32
2022-12-17T12:01:23.082Z,12.39
2022-12-17T12:04:36.040Z,12.42
2022-12-17T12:07:38.422Z,12.58
2022-12-17T12:10:37.817Z,12.73
2022-12-17T12:13:52.606Z,12.94
2022-12-17T12:16:55.777Z,12.69
2022-12-17T12:19:45.605Z,12.77
2022-12-17T12:22:52.100Z,12.56
2022-12-17T12:25:53.566Z,12.38
2022-12-17T12:28:54.032Z,12.47
2022-12-17T12:32:02.428Z,12.83
2022-12-17T12:34:50.189Z,12.92
2022-12-17T12:37:36.374Z,13.08
2022-12-17T12:40:35.347Z,13.26
2022-12-17T12:43:41.610Z,13.44
2022-12-17T12:46:51.805Z,13.18
2022-12-17T12:50:12.985Z,13.24
2022-12-17T12:52:58.213Z,13.10
2022-12-17T12:56:03.590Z,12.93
2022-12-17T12:58:53.269Z,12.41
2022-12-17T13:01:39.004Z,12.31
2022-12-17T13:04:47.234Z,12.33
2022-12-17T13:07:27.988Z,12.11
2022-12-17T13:09:58.666Z,12.18
2022-12-17T13:12:32.499Z,12.21
2022-12-17T13:15:06.935Z,12.21
2022-12-17T13:17:36.509Z,12.07
2022-12-17T13:20:24.495Z,12.04
2022-12-17T13:23:14.817Z,11.94
2022-12-17T13:25:41.698Z,12.08
2022-12-17T13:28:30.865Z,11.93
2022-12-17T13:31:05.093Z,12.05
2022-12-17T13:33:39.064Z,12.13
2022-12-17T13:36:30.268Z,11.84
2022-12-17T13:39:21.713Z,11.78
2022-12-17T13:41:51.902Z,11.98
2022-12-17T13:44:21.983Z,11.82
2022-12-17T13:46:49.564Z,11.84
2022-12-17T13:49:23.013Z,11.79
2022-12-17T13:52:11.547Z,11.85
2022-12-17T13:54:38.627Z,11.75
2022-12-17T13:57:15.593Z,11.68
2022-12-17T13:59:49.505Z,11.73
2022-12-17T14:02:25.283Z,11.71
2022-12-17T14:04:53.640Z,11.71
2022-12-17T14:07:21.118Z,11.66
2022-12-17T14:09:47.746Z,11.58
2022-12-17T14:12:24.642Z,11.58
2022-12-17T14:15:03.815Z,11.79
2022-12-17T14:17:38.653Z,11.65
2022-12-17T14:20:06.399Z,11.84
2022-12-17T14:22:39.077Z,11.92
2022-12-17T14:25:07.020Z,11.92
2022-12-17T14:27:35.116Z,11.88
2022-12-17T14:30:02.014Z,11.51
2022-12-17T14:32:33.949Z,11.70
2022-12-17T14:35:01.221Z,11.62
2022-12-17T14:37:28.363Z,11.50
2022-12-17T14:39:59.429Z,11.42
2022-12-17T14:42:26.070Z,11.43
2022-12-17T14:45:00.618Z,11.52
2022-12-17T14:47:31.649Z,11.56
2022-12-17T14:50:08.349Z,11.63
2022-12-17T14:52:36.397Z,11.72
2022-12-17T14:55:25.044Z,12.02
2022-12-17T14:57:52.649Z,12.41
2022-12-17T15:00:19.777Z,12.06
2022-12-17T15:02:52.980Z,12.14
2022-12-17T15:05:19.773Z,12.18
2022-12-17T15:07:46.607Z,11.99
2022-12-17T15:10:14.941Z,11.79
2022-12-17T15:12:42.506Z,11.81
2022-12-17T15:15:13.257Z,11.62
2022-12-17T15:17:39.977Z,11.37
2022-12-17T15:20:07.103Z,11.56
2022-12-17T15:22:33.782Z,11.46
2022-12-17T15:25:00.467Z,11.23
2022-12-17T15:27:27.054Z,11.04
2022-12-17T15:29:53.772Z,10.66
2022-12-17T15:32:21.968Z,10.81
2022-12-17T15:34:48.796Z,10.92
2022-12-17T15:37:16.401Z,10.89
2022-12-17T15:39:45.417Z,10.81
2022-12-17T15:42:30.309Z,10.42
2022-12-17T15:44:57.040Z,10.47
2022-12-17T15:47:23.694Z,10.14
2022-12-17T15:49:50.440Z,10.31
2022-12-17T15:52:17.033Z,10.06
2022-12-17T15:54:43.710Z,9.64
2022-12-17T15:57:15.361Z,9.64
2022-12-17T15:59:45.044Z,9.37
2022-12-17T16:02:11.759Z,9.34
2022-12-17T16:04:38.639Z,9.34
2022-12-17T16:07:05.621Z,9.73
2022-12-17T16:09:32.412Z,9.80
2022-12-17T16:11:59.174Z,9.73
2022-12-17T16:14:26.055Z,9.69
2022-12-17T16:16:52.767Z,9.77
2022-12-17T16:19:22.300Z,9.92
2022-12-17T16:21:48.941Z,9.91
2022-12-17T16:24:15.573Z,9.54
2022-12-17T16:26:42.297Z,9.58
2022-12-17T16:29:08.984Z,9.53
2022-12-17T16:31:35.833Z,9.23
2022-12-17T16:34:02.958Z,9.01
2022-12-17T16:36:29.563Z,9.20
2022-12-17T16:38:57.752Z,9.16
2022-12-17T16:41:25.580Z,9.55
2022-12-17T16:43:52.251Z,9.30
2022-12-17T16:46:34.570Z,9.37
2022-12-17T16:49:06.052Z,9.47
2022-12-17T16:51:32.857Z,9.01
2022-12-17T16:53:59.666Z,8.83
2022-12-17T16:56:28.067Z,9.05
2022-12-17T16:58:55.215Z,9.40
2022-12-17T17:01:23.235Z,9.04
2022-12-17T17:03:50.236Z,9.05
2022-12-17T17:06:17.463Z,8.82
2022-12-17T17:08:44.348Z,8.67
2022-12-17T17:11:16.289Z,8.68
2022-12-17T17:13:42.971Z,8.48
2022-12-17T17:16:10.051Z,8.46
2022-12-17T17:18:37.161Z,8.55
2022-12-17T17:21:14.195Z,8.79
2022-12-17T17:23:41.133Z,8.78
2022-12-17T17:26:08.253Z,8.86
2022-12-17T17:28:35.361Z,8.92
2022-12-17T17:31:03.041Z,8.65
2022-12-17T17:33:33.913Z,8.56
2022-12-17T17:36:04.469Z,8.27
2022-12-17T17:38:33.053Z,8.31
2022-12-17T17:40:59.714Z,8.12
2022-12-17T17:43:26.417Z,8.00
2022-12-17T17:45:53.245Z,8.05
2022-12-17T17:48:20.001Z,7.80
2022-12-17T17:51:07.101Z,7.67
2022-12-17T17:53:33.751Z,7.96
2022-12-17T17:56:08.434Z,7.92
2022-12-17T17:58:35.482Z,7.81
2022-12-17T18:01:08.058Z,7.86
2022-12-17T18:03:34.993Z,7.74
2022-12-17T18:06:05.922Z,7.55
2022-12-17T18:08:32.896Z,7.16
2022-12-17T18:11:00.303Z,7.03
2022-12-17T18:13:45.518Z,7.07
2022-12-17T18:16:12.331Z,7.23
2022-12-17T18:18:39.539Z,7.16
2022-12-17T18:21:08.708Z,7.35
2022-12-17T18:23:35.609Z,7.21
2022-12-17T18:26:16.740Z,7.49
2022-12-17T18:28:43.855Z,7.50
2022-12-17T18:31:15.695Z,7.12
2022-12-17T18:33:45.193Z,7.05
2022-12-17T18:36:19.400Z,7.13
2022-12-17T18:38:46.271Z,7.08
2022-12-17T18:41:34.987Z,6.89
2022-12-17T18:44:03.926Z,6.83
2022-12-17T18:46:30.749Z,6.60
2022-12-17T18:49:01.917Z,6.44
2022-12-17T18:51:28.666Z,5.92
2022-12-17T18:53:59.636Z,5.84
2022-12-17T18:56:52.511Z,5.83
2022-12-17T18:59:14.401Z,5.74
2022-12-17T19:01:41.266Z,5.68
2022-12-17T19:04:09.160Z,5.63
2022-12-17T19:06:37.183Z,5.45
2022-12-17T19:09:04.943Z,5.40
2022-12-17T19:11:31.679Z,5.48
2022-12-17T19:13:58.310Z,5.58
2022-12-17T19:16:26.293Z,5.77
2022-12-17T19:18:57.526Z,5.90
2022-12-17T19:21:24.666Z,5.70
2022-12-17T19:23:58.458Z,5.61
2022-12-17T19:26:25.527Z,5.80
2022-12-17T19:28:52.848Z,6.25
2022-12-17T19:31:20.380Z,6.24
2022-12-17T19:33:47.150Z,5.94
2022-12-17T19:36:18.455Z,5.70
2022-12-17T19:38:45.565Z,5.82
2022-12-17T19:41:17.213Z,5.97
2022-12-17T19:43:44.736Z,6.12
2022-12-17T19:46:16.178Z,6.06
2022-12-17T19:48:48.274Z,6.18
2022-12-17T19:51:16.583Z,5.54
2022-12-17T19:53:44.292Z,5.58
2022-12-17T19:56:18.911Z,5.74
2022-12-17T19:58:46.402Z,5.78
2022-12-17T20:01:17.363Z,5.54
2022-12-17T20:03:44.654Z,5.47
2022-12-17T20:06:12.015Z,5.49
2022-12-17T20:08:38.999Z,5.34
2022-12-17T20:11:25.806Z,5.20
2022-12-17T20:13:54.560Z,5.35
2022-12-17T20:16:21.420Z,5.47
2022-12-17T20:18:48.068Z,5.49
2022-12-17T20:21:14.771Z,5.71
2022-12-17T20:23:41.482Z,5.65
2022-12-17T20:26:09.645Z,5.66
2022-12-17T20:28:36.449Z,5.94
2022-12-17T20:31:03.834Z,5.97
2022-12-17T20:33:30.653Z,5.85
2022-12-17T20:36:09.637Z,6.15
2022-12-17T20:38:36.477Z,6.18
2022-12-17T20:41:12.099Z,6.16
2022-12-17T20:43:38.893Z,6.19
2022-12-17T20:46:05.997Z,6.02
2022-12-17T20:48:33.947Z,5.92
2022-12-17T20:51:15.775Z,5.57
2022-12-17T20:53:42.466Z,5.66
2022-12-17T20:56:10.802Z,5.81
2022-12-17T20:58:38.219Z,5.76
2022-12-17T21:01:08.515Z,5.80
2022-12-17T21:03:35.355Z,5.73
2022-12-17T21:06:28.106Z,5.69
2022-12-17T21:08:55.205Z,5.59
2022-12-17T21:11:24.158Z,5.41
2022-12-17T21:13:51.027Z,5.36
2022-12-17T21:16:29.041Z,5.35
2022-12-17T21:18:56.648Z,5.29
2022-12-17T21:21:24.819Z,5.51
2022-12-17T21:23:51.687Z,5.65
2022-12-17T21:26:20.231Z,5.81
2022-12-17T21:28:47.902Z,5.75
2022-12-17T21:31:21.882Z,5.96
2022-12-17T21:33:48.756Z,5.95
2022-12-17T21:36:16.320Z,5.85
2022-12-17T21:38:43.232Z,5.79
2022-12-17T21:41:14.101Z,5.81
2022-12-17T21:43:40.798Z,5.88
2022-12-17T21:46:08.062Z,6.09
2022-12-17T21:48:41.345Z,5.94
2022-12-17T21:51:10.658Z,5.97
2022-12-17T21:53:41.954Z,5.98
2022-12-17T21:56:13.213Z,6.06
2022-12-17T21:58:40.929Z,6.13
2022-12-17T22:01:19.507Z,5.92
2022-12-17T22:03:47.710Z,5.69
2022-12-17T22:06:20.784Z,5.76
2022-12-17T22:08:49.033Z,5.57
2022-12-17T22:11:19.865Z,5.68
2022-12-17T22:14:08.491Z,5.90
2022-12-17T22:16:43.201Z,5.89
2022-12-17T22:19:11.104Z,5.80
2022-12-17T22:21:39.266Z,5.62
2022-12-17T22:24:06.606Z,5.40
2022-12-17T22:26:34.036Z,5.59
2022-12-17T22:29:00.836Z,5.75
2022-12-17T22:31:46.125Z,5.98
2022-12-17T22:35:25.023Z,5.99
2022-12-17T22:39:44.871Z,5.91
2022-12-17T22:44:31.972Z,5.90
2022-12-17T22:44:46.298Z,5.98
2022-12-17T22:45:41.848Z,6.10
2022-12-17T22:48:09.176Z,6.07
2022-12-17T22:50:42.922Z,6.10
2022-12-17T22:53:17.624Z,6.11
2022-12-17T22:55:44.743Z,6.14
2022-12-17T22:58:11.673Z,6.11
2022-12-17T23:00:38.330Z,6.21
2022-12-17T23:03:05.172Z,6.28
2022-12-17T23:05:32.053Z,6.24
2022-12-17T23:07:58.889Z,6.29
2022-12-17T23:10:26.188Z,6.36
2022-12-17T23:12:56.629Z,6.21
2022-12-17T23:15:27.730Z,6.30
2022-12-17T23:17:55.831Z,6.50
2022-12-17T23:20:22.636Z,6.60
2022-12-17T23:22:49.365Z,6.33
2022-12-17T23:25:16.153Z,6.37
2022-12-17T23:27:43.619Z,6.47
2022-12-17T23:30:11.273Z,6.39
2022-12-17T23:32:37.974Z,6.67
2022-12-17T23:35:04.869Z,6.22
2022-12-17T23:37:36.537Z,6.31
2022-12-17T23:40:07.887Z,6.55
2022-12-17T23:42:34.636Z,6.47
2022-12-17T23:45:01.330Z,6.72
2022-12-17T23:47:27.996Z,6.77
2022-12-17T23:49:54.757Z,6.68
2022-12-17T23:52:21.403Z,6.61
2022-12-17T23:54:48.126Z,6.51
2022-12-17T23:57:14.842Z,6.87
2022-12-17T23:59:41.564Z,6.71
